Time;durP1;ratioP1;P1;durP2;ratioP2;P2;SDS_P1;SDS_P2;PMS_P1;PMS_P2;Temp;Humidity;BMP_temperature;BMP_pressure;BME280_temperature;BME280_humidity;BME280_pressure;Samples;Min_cycle;Max_cycle;Signal;HPM_P1;HPM_P2
2021/08/06 00:00:01;;;;;;;9.65;2.88;;;;;;;20.05;72.90;98581.56;4934206;29;20455;-89
2021/08/06 00:02:26;;;;;;;9.82;3.30;;;;;;;20.08;72.57;98578.44;4934318;29;20032;-88
2021/08/06 00:04:52;;;;;;;10.40;3.30;;;;;;;20.03;72.41;98572.94;4934247;29;20128;-88
2021/08/06 00:07:17;;;;;;;5.90;2.38;;;;;;;20.09;72.62;98572.09;4936010;29;20446;-88
2021/08/06 00:09:42;;;;;;;10.85;3.67;;;;;;;20.08;73.30;98570.47;4937475;29;20039;-88
2021/08/06 00:12:08;;;;;;;11.73;3.03;;;;;;;20.06;72.80;98561.06;4937616;29;20074;-88
2021/08/06 00:14:35;;;;;;;9.45;2.55;;;;;;;20.00;72.83;98565.38;4937567;29;20087;-89
2021/08/06 00:17:00;;;;;;;9.82;2.65;;;;;;;20.01;72.84;98567.00;4937904;29;20460;-89
2021/08/06 00:19:26;;;;;;;13.85;3.67;;;;;;;19.91;73.40;98564.78;4936344;29;20111;-88
2021/08/06 00:21:51;;;;;;;12.15;3.50;;;;;;;19.95;72.89;98565.19;4937379;29;20394;-89
2021/08/06 00:24:17;;;;;;;12.27;3.83;;;;;;;19.93;73.22;98568.06;4937566;29;20042;-88
2021/08/06 00:26:42;;;;;;;11.82;3.42;;;;;;;20.05;72.59;98565.56;4937295;29;20059;-88
2021/08/06 00:29:09;;;;;;;8.70;3.25;;;;;;;19.98;73.10;98567.41;4937460;29;20111;-88
2021/08/06 00:31:35;;;;;;;12.20;2.85;;;;;;;20.02;72.97;98565.97;4937270;29;20448;-88
2021/08/06 00:34:00;;;;;;;11.88;3.10;;;;;;;20.01;72.22;98564.34;4937210;29;20087;-88
2021/08/06 00:36:26;;;;;;;12.73;4.22;;;;;;;20.00;72.85;98562.69;4937243;29;20027;-88
2021/08/06 00:38:51;;;;;;;14.18;3.58;;;;;;;19.92;72.93;98558.41;4937181;29;20442;-88
2021/08/06 00:41:16;;;;;;;14.23;3.47;;;;;;;19.93;73.32;98553.94;4937066;29;20035;-89
2021/08/06 00:43:42;;;;;;;15.40;3.92;;;;;;;19.86;72.94;98551.28;4937105;29;20070;-88
2021/08/06 00:46:07;;;;;;;11.02;4.07;;;;;;;19.87;73.10;98547.59;4937104;29;20024;-88
2021/08/06 00:48:33;;;;;;;11.68;2.90;;;;;;;19.98;72.43;98556.78;4936926;29;20384;-88
2021/08/06 00:51:00;;;;;;;9.10;3.00;;;;;;;19.94;72.13;98542.25;4937011;29;20410;-88
2021/08/06 00:53:26;;;;;;;16.25;4.78;;;;;;;19.99;71.82;98545.09;4936952;29;20090;-88
2021/08/06 00:55:51;;;;;;;11.10;3.30;;;;;;;20.23;70.83;98550.75;4936769;29;20023;-88
2021/08/06 00:58:17;;;;;;;12.95;3.90;;;;;;;20.28;70.72;98543.75;4936803;29;20034;-88
2021/08/06 01:00:42;;;;;;;17.40;4.10;;;;;;;20.33;70.58;98545.78;4936694;29;20028;-88
2021/08/06 01:03:25;;;;;;;13.90;3.20;;;;;;;20.38;70.48;98549.44;4936743;29;20478;-88
2021/08/06 01:06:08;;;;;;;16.35;3.10;;;;;;;20.49;70.20;98544.44;4936630;29;20059;-88
2021/08/06 01:08:47;;;;;;;11.02;2.95;;;;;;;20.45;69.92;98544.06;4936751;29;20036;-88
2021/08/06 01:11:14;;;;;;;15.60;3.28;;;;;;;20.27;70.53;98533.28;4936454;29;20118;-88
2021/08/06 01:13:50;;;;;;;12.00;3.45;;;;;;;20.44;70.59;98533.59;4936430;29;20493;-89
2021/08/06 01:16:17;;;;;;;13.70;3.35;;;;;;;20.20;71.02;98526.16;4936425;29;20028;-88
2021/08/06 01:19:02;;;;;;;10.68;2.88;;;;;;;20.46;70.02;98534.19;4935884;29;20027;-89
2021/08/06 01:21:31;;;;;;;11.10;3.05;;;;;;;20.04;71.63;98534.59;4936330;29;20059;-88
2021/08/06 01:24:00;;;;;;;15.10;2.95;;;;;;;20.35;69.88;98527.72;4936252;29;20094;-88
2021/08/06 01:26:27;;;;;;;14.27;3.38;;;;;;;20.18;70.72;98530.03;4950787;29;20398;-88
2021/08/06 01:28:52;;;;;;;11.85;2.65;;;;;;;20.24;70.06;98525.72;4936316;29;20035;-89
2021/08/06 01:31:29;;;;;;;14.43;2.65;;;;;;;20.38;70.18;98532.63;4936115;29;20036;-88
2021/08/06 01:33:54;;;;;;;6.07;2.38;;;;;;;20.06;71.36;98527.22;4936058;29;20035;-88
2021/08/06 01:36:20;;;;;;;9.10;2.50;;;;;;;20.19;70.32;98529.03;4936542;29;20030;-88
2021/08/06 01:38:45;;;;;;;13.68;2.38;;;;;;;20.14;70.78;98526.16;4935981;29;20039;-89
2021/08/06 01:41:20;;;;;;;11.02;2.60;;;;;;;20.29;71.18;98520.56;4935933;29;20035;-88
2021/08/06 01:44:21;;;;;;;13.35;1.85;;;;;;;20.45;70.06;98517.41;4935848;29;20115;-89
2021/08/06 01:46:58;;;;;;;7.53;1.70;;;;;;;20.29;71.00;98512.59;4935952;29;20027;-88
2021/08/06 01:49:39;;;;;;;11.07;1.42;;;;;;;20.17;71.04;98507.91;4935738;29;20027;-88
2021/08/06 01:52:09;;;;;;;8.48;1.77;;;;;;;20.32;70.01;98512.13;4936055;29;20024;-88
2021/08/06 01:54:37;;;;;;;5.60;2.08;;;;;;;20.25;70.57;98500.72;4935759;29;20031;-88
2021/08/06 01:57:04;;;;;;;5.57;1.60;;;;;;;20.16;71.24;98514.28;4935801;29;20050;-88
2021/08/06 01:59:30;;;;;;;7.75;1.52;;;;;;;20.24;70.29;98509.72;4935650;29;20059;-88
2021/08/06 02:01:57;;;;;;;6.40;1.58;;;;;;;19.74;72.93;98516.50;4935613;29;20047;-88
2021/08/06 02:04:24;;;;;;;5.30;1.55;;;;;;;20.15;71.44;98517.16;4935581;29;20035;-88
2021/08/06 02:06:50;;;;;;;7.15;1.50;;;;;;;20.18;71.63;98522.88;4935621;29;20486;-88
2021/08/06 02:09:20;;;;;;;7.18;1.50;;;;;;;20.25;71.65;98508.72;4935376;29;20046;-88
2021/08/06 02:11:46;;;;;;;7.05;1.67;;;;;;;20.33;70.35;98513.78;4935465;29;20498;-88
2021/08/06 02:14:12;;;;;;;2.58;1.40;;;;;;;20.23;70.85;98508.91;4935394;29;20028;-88
2021/08/06 02:16:40;;;;;;;7.30;1.38;;;;;;;20.20;70.71;98515.50;4935425;29;20030;-87
2021/08/06 02:19:06;;;;;;;7.50;1.20;;;;;;;20.03;71.38;98509.00;4935377;29;20103;-86
2021/08/06 02:21:35;;;;;;;6.82;1.90;;;;;;;20.40;70.37;98514.56;4935298;29;20114;-86
2021/08/06 02:24:07;;;;;;;6.97;1.00;;;;;;;20.46;70.63;98505.72;4935635;29;20032;-87
2021/08/06 02:26:35;;;;;;;2.17;1.10;;;;;;;20.41;70.13;98510.88;4935340;29;20394;-88
2021/08/06 02:29:10;;;;;;;3.78;1.10;;;;;;;20.52;70.52;98512.03;4934446;29;20024;-88
2021/08/06 02:31:37;;;;;;;3.08;1.05;;;;;;;20.38;70.67;98513.97;4935240;29;20055;-89
2021/08/06 02:34:03;;;;;;;2.58;0.82;;;;;;;20.13;71.77;98508.56;4935193;29;20028;-88
2021/08/06 02:36:29;;;;;;;10.88;1.17;;;;;;;20.30;71.06;98508.88;4934990;29;20158;-88
2021/08/06 02:38:59;;;;;;;5.30;0.90;;;;;;;20.34;71.07;98512.75;4935051;29;20110;-89
2021/08/06 02:41:25;;;;;;;2.38;0.88;;;;;;;20.30;71.25;98509.72;4935383;29;20069;-89
2021/08/06 02:43:50;;;;;;;6.25;1.02;;;;;;;20.33;71.22;98517.25;4934915;29;20028;-88
2021/08/06 02:46:17;;;;;;;5.28;1.45;;;;;;;20.19;71.41;98508.53;4934938;29;20034;-89
2021/08/06 02:48:42;;;;;;;8.20;1.65;;;;;;;20.18;72.05;98511.38;4934863;29;20032;-89
2021/08/06 02:51:07;;;;;;;5.72;1.25;;;;;;;20.14;72.23;98504.84;4934827;29;20379;-88
2021/08/06 02:53:33;;;;;;;7.05;1.27;;;;;;;20.29;71.36;98512.59;4935006;29;20063;-88
2021/08/06 02:55:58;;;;;;;2.75;0.95;;;;;;;20.30;71.53;98508.88;4934767;29;20083;-88
2021/08/06 02:58:24;;;;;;;1.40;0.88;;;;;;;20.23;71.00;98503.59;4934822;29;20024;-89
2021/08/06 03:00:49;;;;;;;3.88;1.05;;;;;;;20.31;71.34;98506.00;4934788;29;20509;-88
2021/08/06 03:03:15;;;;;;;4.82;1.38;;;;;;;20.20;71.44;98506.66;4934632;29;20095;-89
2021/08/06 03:05:40;;;;;;;4.68;1.10;;;;;;;20.26;70.89;98515.66;4934772;29;20016;-88
2021/08/06 03:08:06;;;;;;;6.57;1.20;;;;;;;20.20;71.55;98510.16;4934718;29;20042;-88
2021/08/06 03:10:33;;;;;;;3.80;1.00;;;;;;;20.30;71.27;98509.72;4934642;29;20054;-89
2021/08/06 03:12:59;;;;;;;6.00;1.08;;;;;;;19.99;72.17;98513.94;4934407;29;20600;-88
2021/08/06 03:15:24;;;;;;;4.50;1.17;;;;;;;20.00;72.71;98501.44;4934535;29;20027;-88
2021/08/06 03:17:50;;;;;;;6.53;1.50;;;;;;;20.08;72.22;98495.06;4934630;29;20490;-88
2021/08/06 03:20:22;;;;;;;6.00;2.33;;;;;;;20.30;71.54;98508.88;4934496;29;20031;-89
2021/08/06 03:22:48;;;;;;;3.20;1.08;;;;;;;20.11;72.33;98506.09;4934492;29;20038;-88
2021/08/06 03:25:14;;;;;;;4.03;1.23;;;;;;;20.25;71.62;98512.19;4934266;29;20024;-89
2021/08/06 03:27:39;;;;;;;4.20;1.05;;;;;;;20.21;71.76;98498.47;4934567;29;20499;-89
2021/08/06 03:30:07;;;;;;;3.00;0.98;;;;;;;20.39;71.44;98508.41;4934587;29;20024;-88
2021/08/06 03:32:33;;;;;;;3.33;0.68;;;;;;;20.28;71.26;98509.09;4934417;29;20394;-89
2021/08/06 03:34:58;;;;;;;5.65;1.40;;;;;;;20.17;71.59;98505.25;4934429;29;20020;-90
2021/08/06 03:37:24;;;;;;;2.15;0.82;;;;;;;20.11;72.48;98494.63;4934366;29;20028;-89
2021/08/06 03:39:49;;;;;;;6.32;1.00;;;;;;;20.10;71.90;98501.81;4934182;29;20426;-89
2021/08/06 03:42:14;;;;;;;6.25;1.33;;;;;;;20.23;71.80;98502.78;4938090;29;20023;-89
2021/08/06 03:44:40;;;;;;;6.60;1.80;;;;;;;19.80;74.06;98499.66;4938217;29;20038;-89
2021/08/06 03:47:05;;;;;;;2.83;0.90;;;;;;;20.11;72.86;98495.44;4938073;29;20062;-88
2021/08/06 03:49:30;;;;;;;5.47;1.90;;;;;;;20.02;72.32;98491.38;4938025;29;20030;-88
2021/08/06 03:51:56;;;;;;;3.42;0.85;;;;;;;20.16;71.93;98490.31;4938060;29;20032;-89
2021/08/06 03:54:21;;;;;;;4.40;1.08;;;;;;;20.14;72.16;98499.53;4937940;29;20026;-89
2021/08/06 03:56:46;;;;;;;1.48;0.73;;;;;;;20.17;72.54;98499.91;4937917;29;20047;-89
2021/08/06 03:59:12;;;;;;;5.47;1.15;;;;;;;20.26;72.20;98502.34;4937847;29;20031;-89
2021/08/06 04:01:37;;;;;;;3.72;1.00;;;;;;;20.21;72.20;98503.78;4937891;29;20039;-89
2021/08/06 04:04:03;;;;;;;7.25;0.95;;;;;;;20.11;72.85;98506.09;4937801;29;20023;-89
2021/08/06 04:06:29;;;;;;;3.28;1.23;;;;;;;20.03;73.60;98502.88;4937981;29;20034;-90
2021/08/06 04:08:54;;;;;;;5.68;1.33;;;;;;;20.02;73.44;98518.03;4937642;29;20027;-89
2021/08/06 04:11:20;;;;;;;6.88;1.75;;;;;;;20.08;73.27;98511.84;4937681;29;20577;-89
2021/08/06 04:13:46;;;;;;;5.25;1.38;;;;;;;20.08;73.46;98511.84;4937570;29;20036;-89
2021/08/06 04:16:12;;;;;;;3.85;1.15;;;;;;;20.13;73.02;98509.38;4937763;29;20055;-89
2021/08/06 04:18:38;;;;;;;7.18;1.77;;;;;;;20.07;73.85;98510.22;4937546;29;20486;-89
2021/08/06 04:21:03;;;;;;;3.92;1.63;;;;;;;20.23;72.77;98521.44;4937434;29;20035;-89
2021/08/06 04:23:28;;;;;;;7.78;1.30;;;;;;;20.12;73.14;98518.41;4937325;29;20028;-89
2021/08/06 04:25:54;;;;;;;8.90;1.30;;;;;;;20.11;73.55;98524.75;4937295;29;20030;-89
2021/08/06 04:28:19;;;;;;;4.32;1.15;;;;;;;20.04;73.63;98520.47;4937403;29;20110;-89
2021/08/06 04:30:45;;;;;;;2.63;1.17;;;;;;;20.02;74.67;98539.34;4937480;29;20055;-88
2021/08/06 04:33:10;;;;;;;5.25;1.25;;;;;;;19.98;74.07;98541.63;4937234;29;20032;-88
2021/08/06 04:35:35;;;;;;;8.98;1.88;;;;;;;19.96;74.84;98534.84;4937168;29;20063;-88
2021/08/06 04:38:01;;;;;;;5.78;1.33;;;;;;;20.16;73.82;98537.44;4937154;29;20484;-88
2021/08/06 04:40:27;;;;;;;7.22;1.50;;;;;;;20.02;74.44;98539.34;4937234;29;20031;-88
2021/08/06 04:42:53;;;;;;;8.00;2.03;;;;;;;20.11;74.42;98554.06;4937249;29;20107;-88
2021/08/06 04:45:19;;;;;;;6.07;1.60;;;;;;;20.06;74.53;98551.19;4936921;29;20103;-89
2021/08/06 04:47:46;;;;;;;6.78;1.73;;;;;;;20.02;74.29;98544.66;4936999;29;20031;-88
2021/08/06 04:50:14;;;;;;;4.10;1.25;;;;;;;20.14;74.10;98548.31;4924046;29;20444;-88
2021/08/06 04:52:40;;;;;;;5.07;1.67;;;;;;;19.85;75.41;98556.84;4916143;29;20111;-88
2021/08/06 04:55:06;;;;;;;8.98;2.80;;;;;;;20.08;74.43;98545.66;4928508;29;20020;-88
2021/08/06 04:57:31;;;;;;;6.43;1.73;;;;;;;20.17;73.56;98545.22;4934633;29;20031;-88
2021/08/06 04:59:56;;;;;;;8.15;1.67;;;;;;;19.80;75.29;98547.59;4934583;29;20055;-88
2021/08/06 05:02:22;;;;;;;13.95;2.15;;;;;;;20.03;74.41;98561.47;4934900;29;20019;-88
2021/08/06 05:04:47;;;;;;;10.45;2.13;;;;;;;20.11;74.58;98559.38;4934464;29;20016;-88
2021/08/06 05:07:19;;;;;;;11.38;1.90;;;;;;;20.32;73.89;98557.44;4926371;29;20037;-88
2021/08/06 05:09:45;;;;;;;10.63;2.17;;;;;;;20.14;74.54;98563.47;4934496;29;20028;-88
2021/08/06 05:12:11;;;;;;;5.32;1.80;;;;;;;20.12;74.56;98555.72;4934805;29;20027;-88
2021/08/06 05:14:36;;;;;;;7.25;1.60;;;;;;;19.81;75.17;98553.78;4934391;29;20024;-89
2021/08/06 05:17:02;;;;;;;6.30;1.63;;;;;;;20.06;74.40;98563.72;4934462;29;20031;-88
2021/08/06 05:19:27;;;;;;;12.98;2.08;;;;;;;19.45;77.00;98570.16;4934551;29;20107;-88
2021/08/06 05:21:52;;;;;;;13.90;2.92;;;;;;;19.87;75.15;98555.59;4934097;29;20089;-88
2021/08/06 05:24:18;;;;;;;11.40;2.60;;;;;;;20.00;74.68;98573.34;4917980;29;20443;-88
2021/08/06 05:26:43;;;;;;;14.35;2.25;;;;;;;20.03;74.69;98572.94;4916648;29;20027;-88
2021/08/06 05:29:08;;;;;;;11.23;2.20;;;;;;;20.12;74.21;98565.53;4916437;29;20028;-88
2021/08/06 05:31:34;;;;;;;9.05;2.40;;;;;;;20.01;74.54;98561.69;4916384;29;20032;-88
2021/08/06 05:33:59;;;;;;;13.65;2.25;;;;;;;19.91;74.80;98561.31;4916238;29;20024;-88
2021/08/06 05:36:24;;;;;;;18.45;2.70;;;;;;;19.79;75.07;98561.97;4916164;29;20542;-88
2021/08/06 05:38:50;;;;;;;16.02;3.22;;;;;;;20.01;74.59;98561.69;4916786;29;20008;-89
2021/08/06 05:41:15;;;;;;;9.32;2.85;;;;;;;20.01;74.38;98559.03;4918621;29;20068;-89
2021/08/06 05:43:40;;;;;;;11.15;2.90;;;;;;;20.19;73.32;98559.16;4916166;29;20047;-89
2021/08/06 05:46:06;;;;;;;10.55;2.28;;;;;;;20.18;72.68;98557.53;4916062;29;20016;-88
2021/08/06 05:48:31;;;;;;;14.30;2.67;;;;;;;20.19;73.53;98567.13;4916099;29;20024;-89
2021/08/06 05:50:57;;;;;;;13.13;2.75;;;;;;;19.99;74.50;98567.22;4916076;29;20103;-89
2021/08/06 05:53:22;;;;;;;12.30;2.72;;;;;;;19.86;74.17;98579.75;4916426;29;20072;-88
2021/08/06 05:55:47;;;;;;;17.80;2.70;;;;;;;20.14;73.33;98572.31;4916368;29;20024;-88
2021/08/06 05:58:13;;;;;;;14.48;2.63;;;;;;;20.21;73.49;98586.41;4918668;29;20039;-89
2021/08/06 06:00:38;;;;;;;13.10;2.15;;;;;;;20.19;73.17;98590.31;4915796;29;20028;-88
2021/08/06 06:03:04;;;;;;;15.30;2.50;;;;;;;19.99;73.47;98595.72;4916868;29;20031;-88
2021/08/06 06:05:29;;;;;;;9.77;2.08;;;;;;;20.15;73.31;98605.91;4924158;29;20035;-88
2021/08/06 06:07:54;;;;;;;9.45;1.42;;;;;;;20.28;72.73;98598.88;4931523;29;20707;-87
2021/08/06 06:10:22;;;;;;;18.02;2.72;;;;;;;20.29;72.15;98598.66;4933212;29;20539;-87
2021/08/06 06:12:48;;;;;;;12.20;2.38;;;;;;;20.39;72.14;98592.88;4925432;29;20060;-89
2021/08/06 06:15:14;;;;;;;16.65;2.55;;;;;;;19.98;73.55;98604.72;4921230;29;20062;-88
2021/08/06 06:17:40;;;;;;;11.20;1.75;;;;;;;20.22;72.47;98603.19;4915465;29;20080;-87
2021/08/06 06:20:06;;;;;;;8.68;2.78;;;;;;;20.36;72.01;98609.31;4918672;29;20058;-87
2021/08/06 06:22:32;;;;;;;15.32;2.53;;;;;;;20.11;73.30;98610.00;4915368;29;20024;-89
2021/08/06 06:24:57;;;;;;;17.08;2.08;;;;;;;20.08;73.57;98602.44;4917792;29;20091;-88
2021/08/06 06:27:23;;;;;;;10.55;1.75;;;;;;;20.19;73.53;98606.31;4919889;29;20394;-87
2021/08/06 06:29:48;;;;;;;13.18;3.17;;;;;;;19.95;73.91;98615.81;4934202;29;20161;-88
2021/08/06 06:32:14;;;;;;;15.52;3.13;;;;;;;20.34;72.59;98620.19;4934891;29;20027;-87
2021/08/06 06:34:39;;;;;;;14.57;2.50;;;;;;;20.07;74.13;98627.44;4934008;29;20146;-87
2021/08/06 06:37:04;;;;;;;11.88;2.03;;;;;;;20.21;73.42;98629.03;4934705;29;20332;-87
2021/08/06 06:39:30;;;;;;;12.45;2.15;;;;;;;19.99;74.53;98627.69;4934659;29;20035;-88
2021/08/06 06:41:55;;;;;;;9.65;1.65;;;;;;;20.51;72.61;98623.19;4934838;29;20031;-87
2021/08/06 06:44:20;;;;;;;10.68;1.75;;;;;;;20.29;74.13;98629.84;4934455;29;20031;-87
2021/08/06 06:46:46;;;;;;;8.45;1.70;;;;;;;20.41;73.13;98628.97;4934625;29;20031;-88
2021/08/06 06:49:11;;;;;;;14.55;2.28;;;;;;;20.37;73.20;98633.06;4934967;29;20090;-87
2021/08/06 06:51:37;;;;;;;12.75;1.90;;;;;;;20.45;72.22;98631.22;4932196;29;20367;-87
2021/08/06 06:54:02;;;;;;;11.10;1.63;;;;;;;20.16;73.16;98636.84;4928455;29;20509;-87
2021/08/06 06:56:28;;;;;;;10.13;1.80;;;;;;;20.05;74.61;98650.00;4934380;29;20395;-87
2021/08/06 06:58:53;;;;;;;7.72;1.50;;;;;;;20.18;73.69;98636.63;4934690;29;20124;-88
2021/08/06 07:01:19;;;;;;;11.35;2.88;;;;;;;19.93;75.44;98652.47;4934018;29;20063;-88
2021/08/06 07:03:44;;;;;;;12.05;1.95;;;;;;;19.70;75.84;98650.22;4934131;29;20036;-86
2021/08/06 07:06:09;;;;;;;18.75;2.78;;;;;;;20.07;74.66;98655.94;4934578;29;20042;-88
2021/08/06 07:08:35;;;;;;;15.55;2.53;;;;;;;19.67;76.69;98670.09;4934228;29;20032;-87
2021/08/06 07:11:00;;;;;;;13.48;2.85;;;;;;;19.35;78.72;98674.38;4934198;29;20026;-88
2021/08/06 07:13:25;;;;;;;16.90;3.38;;;;;;;19.63;78.45;98671.53;4932984;29;20110;-86
2021/08/06 07:15:51;;;;;;;17.75;3.45;;;;;;;19.78;76.41;98671.34;4931249;29;20549;-88
2021/08/06 07:18:16;;;;;;;14.35;2.38;;;;;;;19.89;76.06;98677.91;4940925;29;20023;-88
2021/08/06 07:20:42;;;;;;;12.55;3.55;;;;;;;19.88;76.93;98684.25;4940446;29;20032;-88
2021/08/06 07:23:07;;;;;;;10.95;2.00;;;;;;;19.94;76.03;98680.75;4940336;29;20419;-88
2021/08/06 07:25:33;;;;;;;17.27;3.13;;;;;;;20.20;75.36;98686.03;4940746;29;20027;-88
2021/08/06 07:27:59;;;;;;;12.85;3.15;;;;;;;19.98;76.65;98695.28;4939952;29;20032;-88
2021/08/06 07:30:24;;;;;;;19.88;3.90;;;;;;;20.10;75.38;98692.81;4940654;29;20028;-87
2021/08/06 07:32:50;;;;;;;23.02;4.05;;;;;;;19.47;77.92;98695.88;4933418;29;20031;-88
2021/08/06 07:35:18;;;;;;;10.80;2.45;;;;;;;20.06;75.49;98708.38;4940048;29;20115;-88
2021/08/06 07:37:43;;;;;;;16.23;3.13;;;;;;;19.70;76.41;98709.59;4937954;29;20028;-87
2021/08/06 07:40:11;;;;;;;23.52;5.28;;;;;;;19.50;77.82;98716.78;4940191;29;20103;-87
2021/08/06 07:42:37;;;;;;;13.95;2.83;;;;;;;19.86;76.61;98726.25;4938955;29;20030;-88
2021/08/06 07:45:03;;;;;;;16.00;3.35;;;;;;;19.10;80.72;98727.34;4939930;29;20035;-89
2021/08/06 07:47:28;;;;;;;24.27;4.25;;;;;;;19.56;79.70;98723.94;4930937;29;20042;-88
2021/08/06 07:49:54;;;;;;;24.30;3.72;;;;;;;19.63;78.60;98730.09;4937265;29;20122;-89
2021/08/06 07:52:19;;;;;;;20.73;3.78;;;;;;;19.73;78.24;98730.56;4939383;29;20302;-89
2021/08/06 07:54:45;;;;;;;26.27;3.47;;;;;;;19.98;77.03;98745.91;4939599;29;20030;-89
2021/08/06 07:57:11;;;;;;;20.75;3.75;;;;;;;19.59;76.99;98747.50;4940073;29;20038;-86
2021/08/06 07:59:38;;;;;;;21.40;3.55;;;;;;;19.78;77.69;98743.25;4939025;29;20027;-89
2021/08/06 08:02:04;;;;;;;21.73;3.22;;;;;;;19.60;77.72;98741.16;4935319;29;20054;-88
2021/08/06 08:04:29;;;;;;;20.10;3.15;;;;;;;19.91;76.59;98751.25;4938601;29;20098;-88
2021/08/06 08:06:54;;;;;;;20.98;4.55;;;;;;;19.96;76.07;98746.13;4938951;29;20479;-88
2021/08/06 08:09:20;;;;;;;16.45;3.65;;;;;;;19.58;77.68;98748.53;4939232;29;20034;-88
2021/08/06 08:11:45;;;;;;;18.77;3.78;;;;;;;19.17;79.86;98754.78;4937038;29;20040;-88
2021/08/06 08:14:11;;;;;;;20.85;3.97;;;;;;;19.31;78.99;98750.31;4937177;29;20146;-86
2021/08/06 08:16:36;;;;;;;21.77;3.70;;;;;;;19.79;78.00;98753.69;4938279;29;20094;-86
2021/08/06 08:19:02;;;;;;;18.20;3.22;;;;;;;20.19;76.16;98756.34;4936260;29;20030;-87
2021/08/06 08:21:28;;;;;;;19.25;2.88;;;;;;;20.26;74.65;98752.84;4938626;29;20036;-89
2021/08/06 08:23:54;;;;;;;19.90;3.78;;;;;;;20.03;75.93;98751.44;4939001;29;20042;-89
2021/08/06 08:26:21;;;;;;;16.85;3.88;;;;;;;20.35;74.30;98757.75;4937539;29;20027;-89
2021/08/06 08:28:46;;;;;;;22.77;4.40;;;;;;;19.95;75.40;98763.13;4935059;29;20050;-89
2021/08/06 08:31:12;;;;;;;16.40;3.42;;;;;;;19.73;76.40;98767.81;4932032;29;20491;-90
2021/08/06 08:33:37;;;;;;;21.13;5.00;;;;;;;20.14;74.96;98764.16;4936657;29;20512;-89
2021/08/06 08:36:04;;;;;;;20.10;4.35;;;;;;;19.95;75.95;98783.63;4937372;29;20039;-90
2021/08/06 08:38:30;;;;;;;18.15;3.92;;;;;;;19.97;75.86;98781.56;4937290;29;20023;-89
2021/08/06 08:40:56;;;;;;;14.88;3.35;;;;;;;19.72;75.47;98776.00;4931389;29;20024;-89
2021/08/06 08:43:21;;;;;;;20.42;3.83;;;;;;;20.32;74.24;98789.31;4931205;29;20035;-89
2021/08/06 08:45:47;;;;;;;28.10;4.00;;;;;;;20.87;71.80;98787.16;4936364;29;20024;-89
2021/08/06 08:48:14;;;;;;;20.95;3.58;;;;;;;21.22;70.95;98784.16;4935660;29;20063;-89
2021/08/06 08:50:41;;;;;;;17.38;3.83;;;;;;;21.16;70.80;98791.16;4930838;29;20478;-89
2021/08/06 08:53:08;;;;;;;17.80;3.85;;;;;;;21.13;69.56;98799.59;4933607;29;20047;-89
2021/08/06 08:55:33;;;;;;;22.52;3.83;;;;;;;20.69;71.20;98789.69;4927365;29;20031;-89
2021/08/06 08:57:59;;;;;;;17.73;3.50;;;;;;;20.70;71.71;98797.50;4933087;29;20038;-89
2021/08/06 09:00:24;;;;;;;15.75;3.42;;;;;;;20.75;70.31;98808.38;4932846;29;20430;-89
2021/08/06 09:02:50;;;;;;;19.33;3.60;;;;;;;22.24;66.72;98802.84;4932778;29;20490;-89
2021/08/06 09:05:17;;;;;;;17.38;3.45;;;;;;;23.36;63.21;98804.50;4927680;29;20098;-89
2021/08/06 09:07:43;;;;;;;13.88;2.75;;;;;;;22.85;61.36;98809.25;4924326;29;20036;-89
2021/08/06 09:10:18;;;;;;;16.27;3.47;;;;;;;22.59;62.69;98813.03;4923580;29;20479;-89
2021/08/06 09:12:59;;;;;;;15.07;2.97;;;;;;;22.08;64.12;98820.22;4922713;29;20458;-89
2021/08/06 09:15:40;;;;;;;19.55;3.10;;;;;;;22.99;62.32;98823.28;4925529;29;20032;-88
2021/08/06 09:18:38;;;;;;;15.23;2.95;;;;;;;23.06;62.27;98823.22;4919896;29;20395;-89
2021/08/06 09:21:19;;;;;;;17.33;3.60;;;;;;;23.84;61.07;98832.34;4930432;29;20398;-89
2021/08/06 09:23:53;;;;;;;19.13;3.00;;;;;;;23.11;61.19;98834.09;4929313;29;20478;-88
2021/08/06 09:26:27;;;;;;;15.05;3.10;;;;;;;22.97;61.38;98836.88;4920661;29;20388;-89
2021/08/06 09:29:05;;;;;;;15.55;3.70;;;;;;;23.33;61.25;98839.78;4923540;29;20035;-86
2021/08/06 09:31:33;;;;;;;17.30;2.85;;;;;;;22.97;59.50;98842.25;4928118;29;20051;-91
2021/08/06 09:34:13;;;;;;;14.73;3.00;;;;;;;24.14;56.29;98841.13;4924598;29;20032;-86
2021/08/06 09:36:58;;;;;;;12.57;2.50;;;;;;;25.29;54.53;98852.28;4925589;29;20051;-77
2021/08/06 09:39:24;;;;;;;19.90;3.63;;;;;;;25.69;53.17;98853.31;4922648;29;20031;-76
2021/08/06 09:41:50;;;;;;;15.13;2.80;;;;;;;25.95;51.27;98860.00;4922883;29;20042;-78
2021/08/06 09:44:21;;;;;;;11.48;2.30;;;;;;;26.12;50.63;98855.44;4927260;29;20122;-77
2021/08/06 09:46:49;;;;;;;15.30;3.58;;;;;;;26.01;49.59;98856.34;4921718;29;20243;-76
2021/08/06 09:49:17;;;;;;;12.43;2.53;;;;;;;25.73;50.13;98857.97;4925419;29;20130;-76
2021/08/06 09:51:44;;;;;;;13.55;2.65;;;;;;;25.35;51.52;98861.28;4922273;29;20043;-78
2021/08/06 09:54:18;;;;;;;16.50;2.97;;;;;;;24.09;51.95;98859.78;4924216;29;20382;-77
2021/08/06 09:56:45;;;;;;;15.30;2.80;;;;;;;23.98;53.32;98859.75;4918476;29;20502;-76
2021/08/06 09:59:10;;;;;;;16.35;2.88;;;;;;;25.18;53.81;98863.88;4923310;29;20031;-77
2021/08/06 10:01:36;;;;;;;12.00;2.72;;;;;;;24.14;52.01;98875.97;4918476;29;20040;-78
2021/08/06 10:04:15;;;;;;;11.98;2.67;;;;;;;25.39;50.94;98870.50;4919675;29;20024;-79
2021/08/06 10:06:59;;;;;;;11.88;2.45;;;;;;;26.60;48.74;98880.19;4919127;29;20031;-77
2021/08/06 10:09:26;;;;;;;15.55;2.58;;;;;;;27.24;46.43;98879.72;4928935;29;20092;-77
2021/08/06 10:11:52;;;;;;;19.60;2.38;;;;;;;27.35;45.08;98863.69;4924636;29;20036;-77
2021/08/06 10:14:18;;;;;;;11.57;2.33;;;;;;;27.37;44.46;98873.16;4925334;29;20059;-77
2021/08/06 10:16:44;;;;;;;10.25;2.05;;;;;;;26.23;47.15;98875.28;4928494;29;20045;-77
2021/08/06 10:19:10;;;;;;;8.80;1.90;;;;;;;24.88;47.87;98880.97;4927712;29;20114;-77
2021/08/06 10:21:36;;;;;;;9.32;2.83;;;;;;;25.38;48.15;98882.31;4927479;29;20334;-76
2021/08/06 10:24:01;;;;;;;10.00;2.28;;;;;;;25.08;47.27;98885.13;4927855;29;20048;-75
2021/08/06 10:26:27;;;;;;;10.45;2.42;;;;;;;25.80;46.98;98881.22;4926734;29;20137;-76
2021/08/06 10:28:53;;;;;;;10.70;2.35;;;;;;;26.33;44.75;98879.19;4927045;29;20031;-76
2021/08/06 10:31:23;;;;;;;10.93;1.58;;;;;;;26.49;44.01;98871.09;4920496;29;20036;-76
2021/08/06 10:34:01;;;;;;;10.18;1.40;;;;;;;26.26;45.30;98884.72;4918158;29;20494;-76
2021/08/06 10:36:44;;;;;;;13.77;2.65;;;;;;;25.85;45.71;98892.03;4918191;29;20031;-76
2021/08/06 10:39:32;;;;;;;11.80;3.05;;;;;;;24.70;48.93;98902.56;4915009;29;20024;-76
2021/08/06 10:41:58;;;;;;;18.65;3.67;;;;;;;25.04;49.85;98897.38;4923961;29;20035;-76
2021/08/06 10:44:24;;;;;;;11.65;2.30;;;;;;;26.36;47.42;98881.38;4944579;28;20115;-76
2021/08/06 10:47:06;;;;;;;13.02;2.78;;;;;;;26.00;47.59;98878.09;4928875;29;20099;-76
2021/08/06 10:49:32;;;;;;;;;;;;;;;26.41;47.03;98894.94;4922681;29;20036;-76
2021/08/06 10:52:10;;;;;;;12.00;2.28;;;;;;;24.73;47.63;98894.84;4924470;29;19966;-76
2021/08/06 10:54:36;;;;;;;8.30;2.05;;;;;;;24.77;48.75;98897.91;4919370;29;20386;-76
2021/08/06 10:57:11;;;;;;;7.57;1.95;;;;;;;24.17;49.67;98898.84;4914852;29;20027;-76
2021/08/06 10:59:39;;;;;;;9.30;2.17;;;;;;;24.89;49.68;98904.06;4926363;29;20514;-76
2021/08/06 11:02:04;;;;;;;10.07;2.30;;;;;;;25.72;48.76;98890.47;4921812;29;20020;-75
2021/08/06 11:04:30;;;;;;;9.10;2.30;;;;;;;25.99;46.49;98911.41;4923080;29;20038;-76
2021/08/06 11:06:56;;;;;;;9.52;2.17;;;;;;;26.71;44.78;98897.28;4925806;29;20095;-76
2021/08/06 11:09:28;;;;;;;8.60;2.30;;;;;;;26.68;44.31;98877.06;4919534;29;20036;-76
2021/08/06 11:12:03;;;;;;;8.15;2.28;;;;;;;26.05;46.34;98883.56;4930254;29;20030;-76
2021/08/06 11:14:28;;;;;;;8.38;1.52;;;;;;;25.61;44.81;98892.16;4923078;29;20123;-75
2021/08/06 11:17:05;;;;;;;11.73;2.50;;;;;;;25.61;46.43;98897.53;4925284;29;20111;-75
2021/08/06 11:19:37;;;;;;;7.07;1.45;;;;;;;25.12;44.36;98899.75;4924007;29;20439;-75
2021/08/06 11:22:24;;;;;;;8.50;1.60;;;;;;;24.17;47.33;98904.22;4919280;29;20040;-76
2021/08/06 11:24:52;;;;;;;11.65;1.73;;;;;;;24.63;46.16;98891.13;4931772;29;20402;-74
2021/08/06 11:27:21;;;;;;;9.23;1.80;;;;;;;23.75;46.11;98894.25;4932925;29;20442;-74
2021/08/06 11:30:06;;;;;;;7.60;1.85;;;;;;;24.61;47.33;98894.03;4918681;29;20415;-76